Time;durP1;ratioP1;P1;durP2;ratioP2;P2;SDS_P1;SDS_P2;PMS_P1;PMS_P2;Temp;Humidity;BMP_temperature;BMP_pressure;BME280_temperature;BME280_humidity;BME280_pressure;Samples;Min_cycle;Max_cycle;Signal;HPM_P1;HPM_P2
2021/04/12 00:00:45;;;;;;;;;;;13.60;69.60;;;;;;4831142;29;20279;-89
2021/04/12 00:03:13;;;;;;;;;;;13.50;69.30;;;;;;4887841;29;20418;-88
2021/04/12 00:05:44;;;;;;;;;;;13.50;69.30;;;;;;4865117;29;19984;-87
2021/04/12 00:08:25;;;;;;;;;;;13.50;69.70;;;;;;4879674;29;19912;-89
2021/04/12 00:11:04;;;;;;;;;;;13.50;69.40;;;;;;4877793;29;20336;-88
2021/04/12 00:13:33;;;;;;;;;;;13.50;69.30;;;;;;4877238;29;19915;-89
2021/04/12 00:16:01;;;;;;;;;;;13.50;69.30;;;;;;4873215;29;19920;-88
2021/04/12 00:18:32;;;;;;;;;;;13.50;69.20;;;;;;4885445;29;20042;-88
2021/04/12 00:20:58;;;;;;;;;;;13.50;68.80;;;;;;4861742;29;20437;-86
2021/04/12 00:23:56;;;;;;;;;;;13.50;68.90;;;;;;4879327;29;19911;-89
2021/04/12 00:26:22;;;;;;;;;;;13.50;69.20;;;;;;4836702;29;19992;-88
2021/04/12 00:28:56;;;;;;;;;;;13.50;68.50;;;;;;4824869;29;19958;-88
2021/04/12 00:31:32;;;;;;;;;;;13.50;68.80;;;;;;4824695;29;19912;-87
2021/04/12 00:34:01;;;;;;;;;;;13.50;68.60;;;;;;4824872;29;19921;-86
2021/04/12 00:36:45;;;;;;;;;;;13.50;68.00;;;;;;4839648;29;20030;-88
2021/04/12 00:39:18;;;;;;;;;;;13.50;68.10;;;;;;4840613;29;19913;-88
2021/04/12 00:42:00;;;;;;;;;;;13.50;67.80;;;;;;4841614;29;19916;-88
2021/04/12 00:44:46;;;;;;;;;;;13.50;67.80;;;;;;4837122;29;19916;-87
2021/04/12 00:47:11;;;;;;;;;;;13.50;67.80;;;;;;4806101;29;19970;-88
2021/04/12 00:49:41;;;;;;;;;;;13.50;67.40;;;;;;4805990;29;19917;-87
2021/04/12 00:52:25;;;;;;;;;;;13.50;67.20;;;;;;4801823;29;19913;-89
2021/04/12 00:54:52;;;;;;;;;;;13.50;67.20;;;;;;4808361;29;19921;-88
2021/04/12 00:57:36;;;;;;;;;;;13.50;66.40;;;;;;4814618;29;19909;-86
2021/04/12 01:00:05;;;;;;;;;;;13.50;66.90;;;;;;4795524;29;19913;-88
2021/04/12 01:02:30;;;;;;;;;;;13.50;67.00;;;;;;4817058;29;19919;-87
2021/04/12 01:05:05;;;;;;;;;;;13.40;66.40;;;;;;4822805;29;19916;-88
2021/04/12 01:07:42;;;;;;;;;;;13.50;66.70;;;;;;4819319;29;20360;-88
2021/04/12 01:10:16;;;;;;;;;;;13.40;65.90;;;;;;4815019;29;20293;-89
2021/04/12 01:12:59;;;;;;;;;;;13.40;66.30;;;;;;4820939;29;20273;-89
2021/04/12 01:15:39;;;;;;;;;;;13.50;65.80;;;;;;4806783;29;19924;-88
2021/04/12 01:18:05;;;;;;;;;;;13.50;65.40;;;;;;4804403;29;20342;-88
2021/04/12 01:21:00;;;;;;;;;;;13.60;64.60;;;;;;4821587;29;19943;-88
2021/04/12 01:23:31;;;;;;;;;;;13.60;65.20;;;;;;4800394;29;19924;-88
2021/04/12 01:26:11;;;;;;;;;;;13.50;65.00;;;;;;4818307;29;19963;-88
2021/04/12 01:28:37;;;;;;;;;;;13.60;65.00;;;;;;4816487;29;19919;-88
2021/04/12 01:31:31;;;;;;;;;;;13.50;65.30;;;;;;4819548;29;19913;-87
2021/04/12 01:34:15;;;;;;;;;;;13.50;64.90;;;;;;4812950;29;19937;-87
2021/04/12 01:36:59;;;;;;;;;;;13.50;65.10;;;;;;4812189;29;20360;-85
2021/04/12 01:39:43;;;;;;;;;;;13.50;64.80;;;;;;4820777;29;19950;-87
2021/04/12 01:42:27;;;;;;;;;;;13.50;64.90;;;;;;4810701;29;19912;-88
2021/04/12 01:45:10;;;;;;;;;;;13.50;64.80;;;;;;4816630;29;20400;-87
2021/04/12 01:47:45;;;;;;;;;;;13.50;64.70;;;;;;4818963;29;20400;-88
2021/04/12 01:50:22;;;;;;;;;;;13.50;64.50;;;;;;4820579;29;19913;-89
2021/04/12 01:53:03;;;;;;;;;;;13.50;65.10;;;;;;4818377;29;19967;-88
2021/04/12 01:55:31;;;;;;;;;;;13.50;65.00;;;;;;4799427;29;19925;-88
2021/04/12 01:58:10;;;;;;;;;;;13.50;64.80;;;;;;4818217;29;19913;-89
2021/04/12 02:00:42;;;;;;;;;;;13.40;65.00;;;;;;4862706;29;20094;-89
2021/04/12 02:03:08;;;;;;;;;;;13.30;65.20;;;;;;4879716;29;19916;-88
2021/04/12 02:05:52;;;;;;;;;;;13.20;65.50;;;;;;4877076;29;19918;-89
2021/04/12 02:08:19;;;;;;;;;;;13.10;65.90;;;;;;4857623;29;19916;-88
2021/04/12 02:10:49;;;;;;;;;;;13.10;66.10;;;;;;4879767;29;19911;-88
2021/04/12 02:13:26;;;;;;;;;;;13.10;66.30;;;;;;4879301;29;19918;-89
2021/04/12 02:16:11;;;;;;;;;;;13.10;66.00;;;;;;4875680;29;19919;-87
2021/04/12 02:18:39;;;;;;;;;;;13.10;66.50;;;;;;4870382;29;19916;-88
2021/04/12 02:21:15;;;;;;;;;;;13.00;67.30;;;;;;4879305;29;20278;-89
2021/04/12 02:23:47;;;;;;;;;;;13.00;66.90;;;;;;4880847;29;19918;-88
2021/04/12 02:26:28;;;;;;;;;;;12.90;67.10;;;;;;4878123;29;20366;-87
2021/04/12 02:28:53;;;;;;;;;;;12.90;67.10;;;;;;4880414;29;19928;-86
2021/04/12 02:31:31;;;;;;;;;;;12.90;67.00;;;;;;4880479;29;19912;-88
2021/04/12 02:34:03;;;;;;;;;;;12.90;67.30;;;;;;4881487;29;19920;-87
2021/04/12 02:36:45;;;;;;;;;;;12.90;67.20;;;;;;4879235;29;19912;-88
2021/04/12 02:39:22;;;;;;;;;;;12.80;67.70;;;;;;4880304;29;19931;-88
2021/04/12 02:41:53;;;;;;;;;;;12.80;67.70;;;;;;4879438;29;20290;-90
2021/04/12 02:44:31;;;;;;;;;;;12.80;67.80;;;;;;4868850;29;19986;-87
2021/04/12 02:47:15;;;;;;;;;;;12.80;67.80;;;;;;4879057;29;20296;-88
2021/04/12 02:49:50;;;;;;;;;;;12.80;68.00;;;;;;4879524;29;19960;-88
2021/04/12 02:52:32;;;;;;;;;;;12.70;68.00;;;;;;4880275;29;20015;-86
2021/04/12 02:55:16;;;;;;;;;;;12.70;68.40;;;;;;4880809;29;20286;-89
2021/04/12 02:57:51;;;;;;;;;;;12.60;68.60;;;;;;4881509;29;20382;-89
2021/04/12 03:00:22;;;;;;;;;;;12.50;68.90;;;;;;4879901;29;19912;-89
2021/04/12 03:02:47;;;;;;;;;;;12.40;69.10;;;;;;4876339;29;19912;-87
2021/04/12 03:05:13;;;;;;;;;;;12.40;69.10;;;;;;4880126;29;19912;-88
2021/04/12 03:07:41;;;;;;;;;;;12.40;69.30;;;;;;4879681;29;19912;-89
2021/04/12 03:10:25;;;;;;;;;;;12.30;69.60;;;;;;4878361;29;20308;-88
2021/04/12 03:12:59;;;;;;;;;;;12.30;69.70;;;;;;4877796;29;19919;-88
2021/04/12 03:15:43;;;;;;;;;;;12.20;69.90;;;;;;4879285;29;19923;-87
2021/04/12 03:18:20;;;;;;;;;;;12.20;70.10;;;;;;4879671;29;19912;-89
2021/04/12 03:21:04;;;;;;;;;;;12.10;70.20;;;;;;4882696;29;20011;-89
2021/04/12 03:23:35;;;;;;;;;;;12.10;70.40;;;;;;4879568;29;20259;-90
2021/04/12 03:26:04;;;;;;;;;;;12.20;70.60;;;;;;4878450;29;19918;-89
2021/04/12 03:28:36;;;;;;;;;;;12.10;70.70;;;;;;4881502;29;19915;-90
2021/04/12 03:31:02;;;;;;;;;;;12.10;70.80;;;;;;4880040;29;20010;-89
2021/04/12 03:33:37;;;;;;;;;;;12.10;70.90;;;;;;4880541;29;19947;-90
2021/04/12 03:36:06;;;;;;;;;;;12.10;70.90;;;;;;4879895;29;19927;-89
2021/04/12 03:38:41;;;;;;;;;;;12.10;71.10;;;;;;4882586;29;20287;-88
2021/04/12 03:41:13;;;;;;;;;;;12.10;71.20;;;;;;4879151;29;19919;-89
2021/04/12 03:43:57;;;;;;;;;;;12.10;71.30;;;;;;4880067;29;19907;-90
2021/04/12 03:46:25;;;;;;;;;;;12.10;71.10;;;;;;4880460;29;20059;-91
2021/04/12 03:49:09;;;;;;;;;;;12.00;72.20;;;;;;4879636;29;19914;-90
2021/04/12 03:51:40;;;;;;;;;;;12.00;71.90;;;;;;4880746;29;19919;-88
2021/04/12 03:54:12;;;;;;;;;;;12.10;72.10;;;;;;4880341;29;19924;-90
2021/04/12 03:56:53;;;;;;;;;;;12.00;72.30;;;;;;4880469;29;20080;-91
2021/04/12 03:59:37;;;;;;;;;;;12.00;72.90;;;;;;4864139;29;19937;-89
2021/04/12 04:02:26;;;;;;;;;;;11.90;72.60;;;;;;4881796;29;19968;-90
2021/04/12 04:05:10;;;;;;;;;;;11.80;73.20;;;;;;4873624;29;19955;-90
2021/04/12 04:07:36;;;;;;;;;;;11.80;73.60;;;;;;4879466;29;19915;-91
2021/04/12 04:10:07;;;;;;;;;;;11.70;73.70;;;;;;4879826;29;19928;-90
2021/04/12 04:12:51;;;;;;;;;;;11.80;73.70;;;;;;4869589;29;19994;-91
2021/04/12 04:15:19;;;;;;;;;;;11.80;74.20;;;;;;4878970;29;20019;-90
2021/04/12 04:17:45;;;;;;;;;;;11.90;74.30;;;;;;4864829;29;20382;-89
2021/04/12 04:20:29;;;;;;;;;;;12.00;73.90;;;;;;4880248;29;19919;-88
2021/04/12 04:22:58;;;;;;;;;;;12.00;73.60;;;;;;4879400;29;19919;-88
2021/04/12 04:25:36;;;;;;;;;;;12.10;73.00;;;;;;4861858;29;19916;-87
2021/04/12 04:28:15;;;;;;;;;;;12.10;72.60;;;;;;4871872;29;19911;-90
2021/04/12 04:30:59;;;;;;;;;;;12.10;72.50;;;;;;4879325;29;20256;-90
2021/04/12 04:33:43;;;;;;;;;;;12.20;72.90;;;;;;4878782;29;19926;-88
2021/04/12 04:36:12;;;;;;;;;;;12.20;72.70;;;;;;4879659;29;19923;-89
2021/04/12 04:38:54;;;;;;;;;;;12.30;72.80;;;;;;4879977;29;19920;-89
2021/04/12 04:41:31;;;;;;;;;;;12.30;72.70;;;;;;4875712;29;19968;-90
2021/04/12 04:44:11;;;;;;;;;;;12.40;72.90;;;;;;4879637;29;19918;-88
2021/04/12 04:46:47;;;;;;;;;;;12.50;72.60;;;;;;4879106;29;20377;-87
2021/04/12 04:49:22;;;;;;;;;;;12.60;72.00;;;;;;4875513;29;19939;-88
2021/04/12 04:52:02;;;;;;;;;;;12.60;71.50;;;;;;4879092;29;19912;-88
2021/04/12 04:54:37;;;;;;;;;;;12.60;71.80;;;;;;4878733;29;20004;-89
2021/04/12 04:57:17;;;;;;;;;;;12.70;71.30;;;;;;4879142;29;19911;-87
2021/04/12 04:59:43;;;;;;;;;;;12.80;71.20;;;;;;4879182;29;19912;-88
2021/04/12 05:02:20;;;;;;;;;;;12.90;71.20;;;;;;4879142;29;20394;-87
2021/04/12 05:05:13;;;;;;;;;;;12.90;70.40;;;;;;4877813;29;20396;-87
2021/04/12 05:07:57;;;;;;;;;;;13.00;70.70;;;;;;4882274;29;19912;-87
2021/04/12 05:10:32;;;;;;;;;;;13.00;70.50;;;;;;4859503;29;19912;-88
2021/04/12 05:13:10;;;;;;;;;;;13.10;70.50;;;;;;4880536;29;20335;-88
2021/04/12 05:15:54;;;;;;;;;;;13.20;70.90;;;;;;4859561;29;19938;-88
2021/04/12 05:18:38;;;;;;;;;;;13.20;70.60;;;;;;4880263;29;19918;-88
2021/04/12 05:21:16;;;;;;;;;;;13.30;70.00;;;;;;4859382;29;20393;-87
2021/04/12 05:23:46;;;;;;;;;;;13.30;69.90;;;;;;4878189;29;19918;-88
2021/04/12 05:26:18;;;;;;;;;;;13.30;69.60;;;;;;4878893;29;19943;-88
2021/04/12 05:28:53;;;;;;;;;;;13.40;68.80;;;;;;4876491;29;20286;-89
2021/04/12 05:31:24;;;;;;;;;;;13.40;69.00;;;;;;4875828;29;19915;-89
2021/04/12 05:33:55;;;;;;;;;;;13.30;69.40;;;;;;4878332;29;19924;-90
2021/04/12 05:36:39;;;;;;;;;;;13.40;69.70;;;;;;4878172;29;19996;-90
2021/04/12 05:39:17;;;;;;;;;;;13.30;69.20;;;;;;4879047;29;19911;-88
2021/04/12 05:42:01;;;;;;;;;;;13.30;68.90;;;;;;4878337;29;19915;-90
2021/04/12 05:44:41;;;;;;;;;;;13.40;68.90;;;;;;4886142;29;20013;-89
2021/04/12 05:47:07;;;;;;;;;;;13.50;68.40;;;;;;4861032;29;19946;-89
2021/04/12 05:49:32;;;;;;;;;;;13.50;68.60;;;;;;4871084;29;19954;-92
2021/04/12 05:52:01;;;;;;;;;;;13.60;68.60;;;;;;4869144;29;19946;-87
2021/04/12 05:54:32;;;;;;;;;;;13.60;68.90;;;;;;4876741;29;19935;-86
2021/04/12 05:57:13;;;;;;;;;;;13.70;68.30;;;;;;4877474;29;19959;-90
2021/04/12 05:59:38;;;;;;;;;;;13.80;67.50;;;;;;4877527;29;20327;-91
2021/04/12 06:02:04;;;;;;;;;;;13.90;67.70;;;;;;4877973;29;19911;-88
2021/04/12 06:04:49;;;;;;;;;;;14.00;67.30;;;;;;4877758;29;19912;-87
2021/04/12 06:07:30;;;;;;;;;;;14.10;66.30;;;;;;4877177;29;20347;-90
2021/04/12 06:10:18;;;;;;;;;;;14.20;66.80;;;;;;4876830;29;19916;-92
2021/04/12 06:13:02;;;;;;;;;;;14.40;66.60;;;;;;4876833;29;20336;-87
2021/04/12 06:15:45;;;;;;;;;;;14.50;65.30;;;;;;4880389;29;19924;-88
2021/04/12 06:18:23;;;;;;;;;;;14.60;65.00;;;;;;4852356;29;19911;-86
2021/04/12 06:21:19;;;;;;;;;;;14.80;64.70;;;;;;4869396;29;19922;-91
2021/04/12 06:23:47;;;;;;;;;;;14.80;64.10;;;;;;4864239;29;20001;-88
2021/04/12 06:26:31;;;;;;;;;;;14.90;63.90;;;;;;4876232;29;19912;-90
2021/04/12 06:29:06;;;;;;;;;;;15.00;62.70;;;;;;4877338;29;19916;-89
2021/04/12 06:31:31;;;;;;;;;;;15.20;63.70;;;;;;4877146;29;19964;-90
2021/04/12 06:34:25;;;;;;;;;;;15.30;62.50;;;;;;4872988;29;19974;-91
2021/04/12 06:36:58;;;;;;;;;;;15.30;61.90;;;;;;4877444;29;19943;-91
2021/04/12 06:39:29;;;;;;;;;;;15.40;61.90;;;;;;4876948;29;19911;-89
2021/04/12 06:41:58;;;;;;;;;;;15.50;61.90;;;;;;4860466;29;19912;-89
2021/04/12 06:44:26;;;;;;;;;;;15.50;61.30;;;;;;4878730;29;19911;-90
2021/04/12 06:47:06;;;;;;;;;;;15.50;61.70;;;;;;4876674;29;19912;-92
2021/04/12 06:49:44;;;;;;;;;;;15.60;61.10;;;;;;4883425;29;19912;-88
2021/04/12 06:52:24;;;;;;;;;;;15.60;61.00;;;;;;4876528;29;19912;-91
2021/04/12 06:55:08;;;;;;;;;;;15.60;60.40;;;;;;4879084;29;20287;-89
2021/04/12 06:57:43;;;;;;;;;;;15.60;61.40;;;;;;4876340;29;19911;-89
2021/04/12 07:00:16;;;;;;;;;;;15.60;60.70;;;;;;4876698;29;19916;-88
2021/04/12 07:03:07;;;;;;;;;;;15.70;60.60;;;;;;4877125;29;20363;-89
2021/04/12 07:05:45;;;;;;;;;;;15.80;60.30;;;;;;4876944;29;20297;-89
2021/04/12 07:08:32;;;;;;;;;;;16.00;59.90;;;;;;4879489;29;20321;-91
2021/04/12 07:11:16;;;;;;;;;;;16.10;59.90;;;;;;4882206;29;19918;-90
2021/04/12 07:14:08;;;;;;;;;;;16.30;59.80;;;;;;4869685;29;19915;-89
2021/04/12 07:16:33;;;;;;;;;;;16.20;59.00;;;;;;4882470;29;19923;-86
2021/04/12 07:19:11;;;;;;;;;;;16.20;59.20;;;;;;4849928;29;19922;-90
2021/04/12 07:21:52;;;;;;;;;;;16.20;57.50;;;;;;4882408;29;19919;-89
2021/04/12 07:24:34;;;;;;;;;;;16.20;58.10;;;;;;4878991;29;19919;-89
2021/04/12 07:27:19;;;;;;;;;;;16.20;58.50;;;;;;4863489;29;19927;-87
2021/04/12 07:29:54;;;;;;;;;;;16.20;58.90;;;;;;4876228;29;20002;-89
2021/04/12 07:32:29;;;;;;;;;;;16.30;57.90;;;;;;4882701;29;19958;-90
2021/04/12 07:35:13;;;;;;;;;;;16.40;57.70;;;;;;4881730;29;19928;-89
2021/04/12 07:37:57;;;;;;;;;;;16.40;57.60;;;;;;4878680;29;20354;-91
2021/04/12 07:40:41;;;;;;;;;;;16.50;58.40;;;;;;4882853;29;19911;-87
2021/04/12 07:43:13;;;;;;;;;;;16.40;57.70;;;;;;4867066;29;19916;-87
2021/04/12 07:45:40;;;;;;;;;;;16.40;57.70;;;;;;4859378;29;19920;-87
2021/04/12 07:48:12;;;;;;;;;;;16.30;57.70;;;;;;4882738;29;20006;-89
2021/04/12 07:50:56;;;;;;;;;;;16.40;57.90;;;;;;4884875;29;20382;-91
2021/04/12 07:53:40;;;;;;;;;;;16.40;57.50;;;;;;4869158;29;20323;-90
2021/04/12 07:56:33;;;;;;;;;;;16.50;58.30;;;;;;4880876;29;19946;-89
2021/04/12 07:59:18;;;;;;;;;;;16.50;57.50;;;;;;4881065;29;19998;-91
2021/04/12 08:02:02;;;;;;;;;;;16.70;56.80;;;;;;4863100;29;20049;-88
2021/04/12 08:04:37;;;;;;;;;;;16.80;57.10;;;;;;4879354;29;19926;-91
2021/04/12 08:07:17;;;;;;;;;;;16.90;56.30;;;;;;4882440;29;19944;-91
2021/04/12 08:09:55;;;;;;;;;;;16.90;56.90;;;;;;4861214;29;19922;-90
2021/04/12 08:12:39;;;;;;;;;;;17.00;56.90;;;;;;4878638;29;19920;-91
2021/04/12 08:15:23;;;;;;;;;;;17.00;56.30;;;;;;4878839;29;20022;-90
2021/04/12 08:17:52;;;;;;;;;;;17.00;56.20;;;;;;4863497;29;19932;-90
2021/04/12 08:20:23;;;;;;;;;;;17.00;56.20;;;;;;4861252;29;19912;-89
2021/04/12 08:23:08;;;;;;;;;;;17.00;55.90;;;;;;4865162;29;19915;-90
2021/04/12 08:25:36;;;;;;;;;;;16.80;56.30;;;;;;4878977;29;19918;-90
2021/04/12 08:28:20;;;;;;;;;;;16.80;56.60;;;;;;4877008;29;19937;-90
2021/04/12 08:31:05;;;;;;;;;;;16.80;56.60;;;;;;4862922;29;19919;-89
2021/04/12 08:33:33;;;;;;;;;;;16.80;56.50;;;;;;4877019;29;20351;-89
2021/04/12 08:36:17;;;;;;;;;;;16.90;57.40;;;;;;4852044;29;20374;-90
2021/04/12 08:38:43;;;;;;;;;;;17.10;57.40;;;;;;4861379;29;20221;-92
2021/04/12 08:41:17;;;;;;;;;;;17.30;57.20;;;;;;4878635;29;19933;-92
2021/04/12 08:43:43;;;;;;;;;;;17.40;56.70;;;;;;4876010;29;19938;-91
2021/04/12 08:46:27;;;;;;;;;;;17.40;55.60;;;;;;4875947;29;20351;-88
2021/04/12 08:49:04;;;;;;;;;;;17.60;56.00;;;;;;4882058;29;19920;-90
2021/04/12 08:51:49;;;;;;;;;;;17.60;54.70;;;;;;4883664;29;19939;-88
2021/04/12 08:54:17;;;;;;;;;;;17.70;55.20;;;;;;4873413;29;19948;-92
2021/04/12 08:56:55;;;;;;;;;;;17.90;54.30;;;;;;4869120;29;19976;-90
2021/04/12 08:59:40;;;;;;;;;;;17.90;53.60;;;;;;4886046;29;19912;-91
2021/04/12 09:02:12;;;;;;;;;;;17.80;52.70;;;;;;4843444;29;19920;-89
2021/04/12 09:04:51;;;;;;;;;;;17.90;52.50;;;;;;4855499;29;20302;-90
2021/04/12 09:07:17;;;;;;;;;;;17.90;51.80;;;;;;4857908;29;19920;-89
2021/04/12 09:09:48;;;;;;;;;;;18.00;52.60;;;;;;4843605;29;19920;-90
2021/04/12 09:12:16;;;;;;;;;;;18.10;52.50;;;;;;4839219;29;19916;-78
2021/04/12 09:14:45;;;;;;;;;;;18.10;51.90;;;;;;4855793;29;19926;-93
2021/04/12 09:17:13;;;;;;;;;;;18.10;51.30;;;;;;4837779;29;20024;-91
2021/04/12 09:20:08;;;;;;;;;;;18.10;52.20;;;;;;4858160;29;19989;-89
2021/04/12 09:22:33;;;;;;;;;;;18.20;53.00;;;;;;4844286;29;19919;-91
2021/04/12 09:25:01;;;;;;;;;;;18.30;51.50;;;;;;4855631;29;19915;-88
2021/04/12 09:27:45;;;;;;;;;;;18.40;49.60;;;;;;4851869;29;19920;-90
2021/04/12 09:30:11;;;;;;;;;;;18.40;50.20;;;;;;4852402;29;19926;-90
2021/04/12 09:32:55;;;;;;;;;;;18.50;50.40;;;;;;4841400;29;19926;-89
2021/04/12 09:35:20;;;;;;;;;;;18.60;50.80;;;;;;4853012;29;20461;-91
2021/04/12 09:37:52;;;;;;;;;;;18.70;49.30;;;;;;4843993;29;19920;-90
2021/04/12 09:40:20;;;;;;;;;;;18.70;49.40;;;;;;4873184;29;19912;-90
2021/04/12 09:43:03;;;;;;;;;;;18.80;49.30;;;;;;4859323;29;19922;-91
2021/04/12 09:45:41;;;;;;;;;;;18.80;49.50;;;;;;4860490;29;19968;-91
2021/04/12 09:48:25;;;;;;;;;;;18.90;49.70;;;;;;4877481;29;19949;-88
2021/04/12 09:50:51;;;;;;;;;;;19.00;49.10;;;;;;4883957;29;20003;-91
2021/04/12 09:53:25;;;;;;;;;;;18.90;48.80;;;;;;4876653;29;20057;-92
2021/04/12 09:55:57;;;;;;;;;;;19.00;48.40;;;;;;4865133;29;19972;-91
2021/04/12 09:58:41;;;;;;;;;;;18.90;48.60;;;;;;4875665;29;19915;-91
2021/04/12 10:01:12;;;;;;;;;;;18.90;47.50;;;;;;4874659;29;19926;-85
2021/04/12 10:03:52;;;;;;;;;;;18.90;49.00;;;;;;4876657;29;20286;-87
2021/04/12 10:06:36;;;;;;;;;;;18.90;47.50;;;;;;4872933;29;19944;-91
2021/04/12 10:09:04;;;;;;;;;;;19.00;49.50;;;;;;4881654;29;19912;-91
2021/04/12 10:11:38;;;;;;;;;;;18.90;48.90;;;;;;4863116;29;20363;-92
2021/04/12 10:14:30;;;;;;;;;;;18.90;48.70;;;;;;4878702;29;19919;-90
2021/04/12 10:17:06;;;;;;;;;;;19.00;48.40;;;;;;4877363;29;19920;-92
2021/04/12 10:19:52;;;;;;;;;;;19.10;48.40;;;;;;4874064;29;19911;-90
2021/04/12 10:22:21;;;;;;;;;;;19.00;47.80;;;;;;4878436;29;19912;-87
2021/04/12 10:24:47;;;;;;;;;;;19.00;48.10;;;;;;4876141;29;20431;-92
2021/04/12 10:27:38;;;;;;;;;;;19.10;47.80;;;;;;4876992;29;19994;-89
2021/04/12 10:30:10;;;;;;;;;;;19.20;47.50;;;;;;4870883;29;19916;-92
2021/04/12 10:32:40;;;;;;;;;;;19.30;48.50;;;;;;4857866;29;20002;-90
2021/04/12 10:35:08;;;;;;;;;;;19.30;47.60;;;;;;4876903;29;19920;-90
2021/04/12 10:37:34;;;;;;;;;;;19.40;47.90;;;;;;4882582;29;19912;-89
2021/04/12 10:40:08;;;;;;;;;;;19.40;47.10;;;;;;4872559;29;20286;-89
2021/04/12 10:42:37;;;;;;;;;;;19.20;47.40;;;;;;4863357;29;20363;-89
2021/04/12 10:45:02;;;;;;;;;;;19.40;47.70;;;;;;4883187;29;20331;-90
2021/04/12 10:47:34;;;;;;;;;;;19.40;47.30;;;;;;4860507;29;19918;-89
2021/04/12 10:50:18;;;;;;;;;;;19.50;47.40;;;;;;4879933;29;19919;-89
2021/04/12 10:52:53;;;;;;;;;;;19.50;46.90;;;;;;4884688;29;19975;-91
2021/04/12 10:55:20;;;;;;;;;;;19.50;47.70;;;;;;4879861;29;19928;-91
2021/04/12 10:57:48;;;;;;;;;;;19.50;47.60;;;;;;4881324;29;19915;-90
2021/04/12 11:00:26;;;;;;;;;;;19.60;47.80;;;;;;4865453;29;19926;-92
2021/04/12 11:02:52;;;;;;;;;;;19.60;47.40;;;;;;4882054;29;19971;-90
2021/04/12 11:05:19;;;;;;;;;;;19.80;47.20;;;;;;4880994;29;20336;-89
2021/04/12 11:07:50;;;;;;;;;;;19.90;47.70;;;;;;4885179;29;19926;-91
2021/04/12 11:10:22;;;;;;;;;;;20.00;47.10;;;;;;4879893;29;19926;-91
2021/04/12 11:13:01;;;;;;;;;;;20.20;46.70;;;;;;4879596;29;19922;-91
2021/04/12 11:15:49;;;;;;;;;;;20.30;46.20;;;;;;4875400;29;20398;-88
2021/04/12 11:18:17;;;;;;;;;;;20.30;45.50;;;;;;4834233;29;20423;-90
2021/04/12 11:20:49;;;;;;;;;;;20.30;46.20;;;;;;4841082;29;19923;-89
2021/04/12 11:23:40;;;;;;;;;;;20.40;45.50;;;;;;4843103;29;19920;-91
2021/04/12 11:26:18;;;;;;;;;;;20.40;45.20;;;;;;4844746;29;20314;-90
2021/04/12 11:28:43;;;;;;;;;;;20.50;45.60;;;;;;4842382;29;19920;-89
2021/04/12 11:31:11;;;;;;;;;;;20.50;45.00;;;;;;4839649;29;20457;-90
2021/04/12 11:33:56;;;;;;;;;;;20.50;45.10;;;;;;4838961;29;19920;-90
2021/04/12 11:36:24;;;;;;;;;;;20.60;45.90;;;;;;4836634;29;20019;-89
2021/04/12 11:39:11;;;;;;;;;;;20.50;46.00;;;;;;4847572;29;21446;-90
2021/04/12 11:41:46;;;;;;;;;;;20.60;45.40;;;;;;4831936;29;19916;-92
2021/04/12 11:44:14;;;;;;;;;;;20.70;45.80;;;;;;4845565;29;19919;-91
2021/04/12 11:47:08;;;;;;;;;;;20.60;45.70;;;;;;4841605;29;19912;-87
2021/04/12 11:49:45;;;;;;;;;;;20.80;45.20;;;;;;4842924;29;19920;-90
2021/04/12 11:52:11;;;;;;;;;;;20.90;45.40;;;;;;4847082;29;20381;-93
2021/04/12 11:54:52;;;;;;;;;;;20.90;45.70;;;;;;4858430;29;19974;-90
2021/04/12 11:57:43;;;;;;;;;;;21.00;45.40;;;;;;4881932;29;19926;-90
2021/04/12 12:00:08;;;;;;;;;;;21.00;45.80;;;;;;4881793;29;20002;-89
2021/04/12 12:02:37;;;;;;;;;;;21.00;46.00;;;;;;4880153;29;20380;-89
2021/04/12 12:05:07;;;;;;;;;;;20.90;45.10;;;;;;4878399;29;19919;-90
2021/04/12 12:07:33;;;;;;;;;;;20.90;44.70;;;;;;4866433;29;19920;-89
2021/04/12 12:10:02;;;;;;;;;;;20.80;45.70;;;;;;4864072;29;19979;-90
2021/04/12 12:12:35;;;;;;;;;;;20.80;45.00;;;;;;4882882;29;19912;-92
2021/04/12 12:15:03;;;;;;;;;;;20.80;46.00;;;;;;4884113;29;19927;-91
2021/04/12 12:17:37;;;;;;;;;;;20.60;45.40;;;;;;4878459;29;19915;-87
2021/04/12 12:20:10;;;;;;;;;;;20.60;45.60;;;;;;4882678;29;19966;-90
2021/04/12 12:22:51;;;;;;;;;;;20.50;45.20;;;;;;4880809;29;19935;-90
2021/04/12 12:25:35;;;;;;;;;;;20.40;45.90;;;;;;4868652;29;19920;-91
2021/04/12 12:28:16;;;;;;;;;;;20.30;45.50;;;;;;4865885;29;19927;-92
2021/04/12 12:31:02;;;;;;;;;;;20.10;46.10;;;;;;4880235;29;20389;-92
2021/04/12 12:33:41;;;;;;;;;;;20.00;46.00;;;;;;4884074;29;20433;-91
2021/04/12 12:36:25;;;;;;;;;;;19.80;46.30;;;;;;4883301;29;19950;-92
2021/04/12 12:39:03;;;;;;;;;;;19.80;45.90;;;;;;4877686;29;20005;-92
2021/04/12 12:41:33;;;;;;;;;;;19.70;46.80;;;;;;4883232;29;19911;-92
2021/04/12 12:44:03;;;;;;;;;;;19.70;46.10;;;;;;4875141;29;19965;-91
2021/04/12 12:46:31;;;;;;;;;;;19.60;47.30;;;;;;4859547;29;19974;-89
2021/04/12 12:49:09;;;;;;;;;;;19.60;46.20;;;;;;4881503;29;20387;-89
2021/04/12 12:51:46;;;;;;;;;;;19.50;47.30;;;;;;4866951;29;19918;-89
2021/04/12 12:54:27;;;;;;;;;;;19.40;47.00;;;;;;4883055;29;19945;-89
2021/04/12 12:57:00;;;;;;;;;;;19.30;47.40;;;;;;4879286;29;20355;-90
2021/04/12 12:59:26;;;;;;;;;;;19.30;47.30;;;;;;4882305;29;20355;-88
2021/04/12 13:01:53;;;;;;;;;;;19.30;47.60;;;;;;4879796;29;20026;-92
2021/04/12 13:04:20;;;;;;;;;;;19.30;47.60;;;;;;4887312;29;20002;-92
2021/04/12 13:06:48;;;;;;;;;;;19.30;47.50;;;;;;4885021;29;19922;-92
2021/04/12 13:09:22;;;;;;;;;;;19.20;47.70;;;;;;4885438;29;19960;-92
2021/04/12 13:11:48;;;;;;;;;;;19.20;47.10;;;;;;4885083;29;19915;-89
2021/04/12 13:14:16;;;;;;;;;;;19.30;47.40;;;;;;4887396;29;19926;-92
2021/04/12 13:16:43;;;;;;;;;;;19.30;48.10;;;;;;4879208;29;19919;-89
2021/04/12 13:19:09;;;;;;;;;;;19.20;48.40;;;;;;4864601;29;19927;-88
2021/04/12 13:21:39;;;;;;;;;;;19.20;47.30;;;;;;4880068;29;19911;-91
2021/04/12 13:24:08;;;;;;;;;;;19.20;47.70;;;;;;4881228;29;19931;-93
2021/04/12 13:26:34;;;;;;;;;;;19.20;48.20;;;;;;4874586;29;19933;-91
2021/04/12 13:29:05;;;;;;;;;;;19.00;47.70;;;;;;4867120;29;20296;-91
2021/04/12 13:31:35;;;;;;;;;;;19.10;48.20;;;;;;4886160;29;19954;-92
2021/04/12 13:34:04;;;;;;;;;;;19.00;48.30;;;;;;4886972;29;20402;-90
2021/04/12 13:36:30;;;;;;;;;;;18.90;48.70;;;;;;4879006;29;19915;-91
2021/04/12 13:38:59;;;;;;;;;;;18.90;48.50;;;;;;4883583;29;20385;-90
2021/04/12 13:41:27;;;;;;;;;;;18.90;49.00;;;;;;4888323;29;19959;-91
2021/04/12 13:43:55;;;;;;;;;;;18.80;49.50;;;;;;4880661;29;19919;-93
2021/04/12 13:46:20;;;;;;;;;;;18.70;49.00;;;;;;4881877;29;19955;-91
2021/04/12 13:48:49;;;;;;;;;;;18.70;49.40;;;;;;4885430;29;20033;-93
2021/04/12 13:51:33;;;;;;;;;;;18.70;49.00;;;;;;4879647;29;19934;-87
2021/04/12 13:54:17;;;;;;;;;;;18.60;49.60;;;;;;4881777;29;19930;-91
2021/04/12 13:56:51;;;;;;;;;;;18.60;49.80;;;;;;4868160;29;19939;-90
2021/04/12 13:59:22;;;;;;;;;;;18.50;49.40;;;;;;4887143;29;19922;-89
2021/04/12 14:01:53;;;;;;;;;;;18.50;49.80;;;;;;4879868;29;20254;-93
2021/04/12 14:04:24;;;;;;;;;;;18.50;50.00;;;;;;4881481;29;19918;-92
2021/04/12 14:07:08;;;;;;;;;;;18.50;50.30;;;;;;4884124;29;19998;-92
2021/04/12 14:09:42;;;;;;;;;;;18.50;50.40;;;;;;4882554;29;19968;-93
2021/04/12 14:12:13;;;;;;;;;;;18.40;50.40;;;;;;4885359;29;19938;-93
2021/04/12 14:14:44;;;;;;;;;;;18.40;50.70;;;;;;4877094;29;19945;-92
2021/04/12 14:17:12;;;;;;;;;;;18.30;50.70;;;;;;4865533;29;19920;-93
2021/04/12 14:19:46;;;;;;;;;;;18.20;50.90;;;;;;4876918;29;20006;-91
2021/04/12 14:22:17;;;;;;;;;;;18.20;50.90;;;;;;4879501;29;19908;-93
2021/04/12 14:24:45;;;;;;;;;;;18.20;51.60;;;;;;4867005;29;19912;-93
2021/04/12 14:27:13;;;;;;;;;;;18.10;51.80;;;;;;4880393;29;19919;-92
2021/04/12 14:30:06;;;;;;;;;;;18.10;51.90;;;;;;4862109;29;19927;-93
2021/04/12 14:32:40;;;;;;;;;;;18.00;52.00;;;;;;4879434;29;19911;-91
2021/04/12 14:35:07;;;;;;;;;;;18.00;52.20;;;;;;4868562;29;19920;-91
2021/04/12 14:37:34;;;;;;;;;;;18.00;52.00;;;;;;4863501;29;19911;-91
2021/04/12 14:40:09;;;;;;;;;;;18.00;52.30;;;;;;4879877;29;20411;-93
2021/04/12 14:42:36;;;;;;;;;;;17.90;52.60;;;;;;4879992;29;19956;-91
2021/04/12 14:45:05;;;;;;;;;;;17.90;52.90;;;;;;4887850;29;20011;-91
2021/04/12 14:47:33;;;;;;;;;;;17.80;53.40;;;;;;4881495;29;19912;-93
2021/04/12 14:50:01;;;;;;;;;;;17.80;53.20;;;;;;4890101;29;19915;-90
2021/04/12 14:52:37;;;;;;;;;;;17.80;53.60;;;;;;4887698;29;19915;-92
2021/04/12 14:55:08;;;;;;;;;;;17.70;53.70;;;;;;4879708;29;20011;-91
2021/04/12 14:57:36;;;;;;;;;;;17.70;53.20;;;;;;4882966;29;20359;-93
2021/04/12 15:00:11;;;;;;;;;;;17.70;53.20;;;;;;4881603;29;20020;-90
2021/04/12 15:02:55;;;;;;;;;;;17.70;53.50;;;;;;4889122;29;19938;-93